Time,TemperatureF,DewpointF,PressureIn,WindDirection,WindDirectionDegrees,WindSpeedMPH,WindSpeedGustMPH,Humidity,HourlyPrecipIn,Conditions,Clouds,dailyrainin,SoftwareType,DateUTC
2013-09-04 00:00:00,59.5,38.2,29.99,NNE,29,0.0,0.0,45,0.00,,---,0.00,VWS V14.01,2013-09-04 04:00:00,
2013-09-04 00:33:00,58.8,38.1,30.02,NNE,17,3.1,3.1,46,0.00,,---,0.00,VWS V14.01,2013-09-04 04:33:00,
2013-09-04 01:00:00,58.5,38.3,29.99,North,353,3.8,3.8,47,0.00,,---,0.00,VWS V14.01,2013-09-04 05:00:00,
2013-09-04 01:33:00,58.1,38.5,30.02,NNE,12,3.8,3.8,48,0.00,,---,0.00,VWS V14.01,2013-09-04 05:33:00,
2013-09-04 02:00:00,57.7,39.2,29.99,North,11,0.0,0.0,50,0.00,,---,0.00,VWS V14.01,2013-09-04 06:00:00,
2013-09-04 02:33:00,57.2,39.2,30.02,NNE,29,0.0,0.0,51,0.00,,---,0.00,VWS V14.01,2013-09-04 06:33:00,
2013-09-04 03:00:00,57.2,40.2,29.99,North,11,3.8,3.8,53,0.00,,---,0.00,VWS V14.01,2013-09-04 07:00:00,
2013-09-04 03:33:00,56.7,40.7,29.99,NNE,25,0.0,0.0,55,0.00,,---,0.00,VWS V14.01,2013-09-04 07:33:00,
2013-09-04 04:00:00,56.1,40.2,30.02,North,1,0.0,0.0,55,0.00,,---,0.00,VWS V14.01,2013-09-04 08:00:00,
2013-09-04 04:33:00,55.8,40.3,30.02,NNE,25,0.0,0.0,56,0.00,,---,0.00,VWS V14.01,2013-09-04 08:33:00,
2013-09-04 05:00:00,55.6,40.2,30.02,North,11,0.0,0.0,56,0.00,,---,0.00,VWS V14.01,2013-09-04 09:00:00,
2013-09-04 05:33:00,54.9,39.9,30.02,NNE,16,0.0,0.0,57,0.00,,---,0.00,VWS V14.01,2013-09-04 09:33:00,
2013-09-04 06:00:00,54.7,39.8,30.02,North,6,0.0,0.0,57,0.00,,---,0.00,VWS V14.01,2013-09-04 10:00:00,
2013-09-04 06:33:00,54.3,39.9,30.02,North,6,0.0,0.0,58,0.00,,---,0.00,VWS V14.01,2013-09-04 10:33:00,
2013-09-04 07:00:00,53.6,38.8,30.02,North,6,0.0,0.0,57,0.00,,---,0.00,VWS V14.01,2013-09-04 11:00:00,
2013-09-04 07:33:00,54.3,39.9,30.05,North,6,0.0,0.0,58,0.00,,---,0.00,VWS V14.01,2013-09-04 11:33:00,
2013-09-04 08:00:00,54.5,40.0,30.05,North,6,0.0,0.0,58,0.00,,---,0.00,VWS V14.01,2013-09-04 12:00:00,
2013-09-04 08:33:00,55.6,41.5,30.05,North,6,0.0,0.0,59,0.00,,---,0.00,VWS V14.01,2013-09-04 12:33:00,
2013-09-04 09:00:00,56.8,42.7,30.08,NNW,343,0.0,0.0,59,0.00,,---,0.00,VWS V14.01,2013-09-04 13:00:00,
2013-09-04 09:33:00,58.8,44.5,30.08,SW,234,0.0,0.0,59,0.00,,---,0.00,VWS V14.01,2013-09-04 13:33:00,
2013-09-04 10:00:00,61.2,44.9,30.08,NW,314,4.4,4.4,55,0.00,,---,0.00,VWS V14.01,2013-09-04 14:00:00,
2013-09-04 10:33:00,63.1,41.5,30.08,West,265,3.8,3.8,45,0.00,,---,0.00,VWS V14.01,2013-09-04 14:33:00,
2013-09-04 11:00:00,64.2,38.1,30.08,NNE,13,3.8,3.8,38,0.00,,---,0.00,VWS V14.01,2013-09-04 15:00:00,
2013-09-04 11:33:00,65.8,37.5,30.11,North,353,5.0,5.0,35,0.00,,---,0.00,VWS V14.01,2013-09-04 15:33:00,
2013-09-04 12:00:00,66.2,37.8,30.11,SW,218,4.4,4.4,35,0.00,,---,0.00,VWS V14.01,2013-09-04 16:00:00,
2013-09-04 12:33:00,67.8,39.2,30.08,NW,307,3.8,3.8,35,0.00,,---,0.00,VWS V14.01,2013-09-04 16:33:00,
2013-09-04 13:00:00,68.9,40.2,30.11,WNW,292,3.8,3.8,35,0.00,,---,0.00,VWS V14.01,2013-09-04 17:00:00,
2013-09-04 13:33:00,70.0,40.3,30.08,SSW,198,4.4,4.4,34,0.00,,---,0.00,VWS V14.01,2013-09-04 17:33:00,
2013-09-04 14:00:00,70.9,41.1,30.08,NW,313,3.8,3.8,34,0.00,,---,0.00,VWS V14.01,2013-09-04 18:00:00,
2013-09-04 14:33:00,71.4,41.6,30.08,West,272,4.4,4.4,34,0.00,,---,0.00,VWS V14.01,2013-09-04 18:33:00,
2013-09-04 15:00:00,71.6,41.8,30.08,NW,324,3.8,3.8,34,0.00,,---,0.00,VWS V14.01,2013-09-04 19:00:00,
2013-09-04 15:33:00,71.8,41.9,30.08,NNW,337,5.6,5.6,34,0.00,,---,0.00,VWS V14.01,2013-09-04 19:33:00,
2013-09-04 16:00:00,72.0,42.1,30.08,WSW,258,5.0,5.0,34,0.00,,---,0.00,VWS V14.01,2013-09-04 20:00:00,
2013-09-04 16:33:00,72.3,42.4,30.08,NE,43,3.1,3.1,34,0.00,,---,0.00,VWS V14.01,2013-09-04 20:33:00,
2013-09-04 17:00:00,72.5,42.6,30.08,West,272,3.1,3.1,34,0.00,,---,0.00,VWS V14.01,2013-09-04 21:00:00,
2013-09-04 17:33:00,72.3,42.4,30.08,West,278,3.1,3.1,34,0.00,,---,0.00,VWS V14.01,2013-09-04 21:33:00,
2013-09-04 18:00:00,72.0,42.1,30.08,North,357,4.4,4.4,34,0.00,,---,0.00,VWS V14.01,2013-09-04 22:00:00,
2013-09-04 18:33:00,71.1,41.3,30.11,NNE,19,3.8,3.8,34,0.00,,---,0.00,VWS V14.01,2013-09-04 22:33:00,
2013-09-04 19:00:00,70.0,40.3,30.11,North,8,3.1,3.1,34,0.00,,---,0.00,VWS V14.01,2013-09-04 23:00:00,
2013-09-04 19:33:00,67.3,38.7,30.11,NNE,27,0.0,0.0,35,0.00,,---,0.00,VWS V14.01,2013-09-04 23:33:00,
2013-09-04 20:00:00,64.9,36.7,30.11,NNE,27,0.0,0.0,35,0.00,,---,0.00,VWS V14.01,2013-09-05 00:00:00,
2013-09-04 20:33:00,63.9,37.8,30.11,WNW,283,0.0,0.0,38,0.00,,---,0.00,VWS V14.01,2013-09-05 00:33:00,
2013-09-04 21:00:00,63.5,37.5,30.11,WNW,283,0.0,0.0,38,0.00,,---,0.00,VWS V14.01,2013-09-05 01:00:00,
2013-09-04 21:33:00,63.3,39.2,30.11,WNW,286,0.0,0.0,41,0.00,,---,0.00,VWS V14.01,2013-09-05 01:33:00,
2013-09-04 22:00:00,62.6,38.6,30.14,North,0,0.0,0.0,41,0.00,,---,0.00,VWS V14.01,2013-09-05 02:00:00,
2013-09-04 22:33:00,62.4,38.4,30.11,NW,323,0.0,0.0,41,0.00,,---,0.00,VWS V14.01,2013-09-05 02:33:00,
2013-09-04 23:00:00,61.3,39.3,30.11,North,353,0.0,0.0,44,0.00,,---,0.00,VWS V14.01,2013-09-05 03:00:00,
2013-09-04 23:33:00,60.4,37.3,30.11,NNW,337,3.1,3.1,42,0.00,,---,0.00,VWS V14.01,2013-09-05 03:33:00,